< < Back
Terminal Aerodrome Forecast


Current Version              Previous Versions:   1  2  3  4  5  6  7  8  9  

Terminal Aerodrome Forecast

247
FTUS42 KMLB 260200 AAA
TAFMCO
TAF AMD
KMCO 260200Z 2602/2624 14005KT P6SM VCTS BKN045CB BKN250
     FM260300 16003KT P6SM FEW050 BKN250
     FM261500 21006KT P6SM SCT030
     FM262100 10009KT P6SM VCTS SCT045CB BKN250=

Latest METAR

084
SAUS70 KWBC 260200 RRE
MTRMCO
METAR KMCO 260153Z 14005KT 10SM BKN043 BKN250 29/23 A3009 RMK AO2 SLP186
OCNL LTGIC DSNT W CB DSNT W T02890233


USA.gov is the U.S. government's official web portal to all federal, state and local government web resources and services.